Beaufort MCAS - Merritt Field
KNBC : now visible

Airfield :











YOU CAN JOIN US ON...

 
LOGIN :

Register | Disclaimer

   EN    FR    IT 

 









Legend :    VFR   Marginal VFR   IFR   Intensive IFR   Very Intensive IFR
Visi :
Ceiling :
>= 8 km
>= 3000ft
5 to 8 km
1000 to 3000 ft
1500m to 5 km
500 to 1000 ft
800 to 1500m
200 to 500 ft
< 800m
< 200 ft
Symbols :   Thunderstorms  Fog  Heavy snow  Heavy precipitations  Wind > 20 kt






- Airport Elevation : 37 ft


KNBC - Beaufort MCAS - Merritt Field

CURRENT METAR :
  • 120456Z AUTO 00000KT 10SM CLR 13/12 A3004 RMK AO2 SLP172 T01330117 402330050 $

EXPIRED METARs :
  • 120356Z AUTO 00000KT 10SM CLR 15/14 A3006 RMK AO2 SLP178 T01500139 $
  • 120256Z AUTO 00000KT 10SM SCT070 15/13 A3008 RMK AO2 SLP187 T01500128 58003 $

TAF TAF KNBC
Valid from the 11 at 21:00 until the 12 at 21:00 UTC


1121/1221 VRB06KT 9999 SKC QNH3001INS
BECMG 1203/1205 VRB06KT 9999 SCT050 QNH2990INS
TEMPO 1215/1221 31008KT 4800 SHRA BR BKN015 OVC030 T13/1209Z T20/1217Z



MET'MAP, your aeronautical weather chart ! - Copyright ORBIFLY December 2007 - Disclaimer

ORBIFLY MET'MAP TEAM :

Programming & Development : Alexandra Zaïnal
Concept & Development : Baudouin d'Aumeries
Co-Development & Prog : Marc-Olivier Méhu
Technical & hardware support : Manuel Goepfert

Contact : metmap@orbifly.com




SOURCES & CREDITS :

   NOAA       Earth
Advisory